createdAt,value
2018-12-24T00:00:00.264Z,6.42
2018-12-24T00:01:00.134Z,6.41
2018-12-24T00:02:00.115Z,6.44
2018-12-24T00:03:00.089Z,6.39
2018-12-24T00:04:00.057Z,6.44
2018-12-24T00:05:00.250Z,6.44
2018-12-24T00:06:00.043Z,6.36
2018-12-24T00:07:00.039Z,6.36
2018-12-24T00:08:00.033Z,6.39
2018-12-24T00:09:00.032Z,6.39
2018-12-24T00:10:00.004Z,6.36
2018-12-24T00:10:59.983Z,6.45
2018-12-24T00:12:07.038Z,6.39
2018-12-24T00:13:01.009Z,6.42
2018-12-24T00:13:59.949Z,6.44
2018-12-24T00:14:59.953Z,6.44
2018-12-24T00:15:59.937Z,6.46
2018-12-24T00:16:59.909Z,6.42
2018-12-24T00:17:59.910Z,6.38
2018-12-24T00:18:59.929Z,6.38
2018-12-24T00:19:59.907Z,6.44
2018-12-24T00:20:59.881Z,6.39
2018-12-24T00:21:59.864Z,6.36
2018-12-24T00:22:59.847Z,6.36
2018-12-24T00:23:59.879Z,6.45
2018-12-24T00:24:59.851Z,6.42
2018-12-24T00:25:59.862Z,6.39
2018-12-24T00:26:59.815Z,6.38
2018-12-24T00:27:59.804Z,6.36
2018-12-24T00:28:59.787Z,6.36
2018-12-24T00:29:59.810Z,6.35
2018-12-24T00:30:59.779Z,6.38
2018-12-24T00:31:59.776Z,6.42
2018-12-24T00:32:59.729Z,6.39
2018-12-24T00:33:59.732Z,6.39
2018-12-24T00:34:59.739Z,6.39
2018-12-24T00:35:59.729Z,6.45
2018-12-24T00:36:59.715Z,6.42
2018-12-24T00:37:59.697Z,6.39
2018-12-24T00:38:59.685Z,6.41
2018-12-24T00:39:59.658Z,6.48
2018-12-24T00:40:59.696Z,6.45
2018-12-24T00:41:59.658Z,6.46
2018-12-24T00:42:59.631Z,6.51
2018-12-24T00:43:59.633Z,6.52
2018-12-24T00:44:59.638Z,6.46
2018-12-24T00:45:59.598Z,6.46
2018-12-24T00:46:59.613Z,6.51
2018-12-24T00:47:59.577Z,6.49
2018-12-24T00:48:59.627Z,6.48
2018-12-24T00:49:59.579Z,6.49
2018-12-24T00:50:59.551Z,6.59
2018-12-24T00:51:59.552Z,6.51
2018-12-24T00:52:59.561Z,6.52
2018-12-24T00:53:59.522Z,6.56
2018-12-24T00:54:59.485Z,6.48
2018-12-24T00:55:59.507Z,6.48
2018-12-24T00:56:59.483Z,6.52
2018-12-24T00:57:59.451Z,6.52
2018-12-24T00:58:59.464Z,6.57
2018-12-24T00:59:59.462Z,6.59
2018-12-24T01:00:59.438Z,6.59
2018-12-24T01:01:59.411Z,6.62
2018-12-24T01:02:59.401Z,6.56
2018-12-24T01:03:59.422Z,6.54
2018-12-24T01:04:59.402Z,6.52
2018-12-24T01:05:59.373Z,6.49
2018-12-24T01:06:59.378Z,6.56
2018-12-24T01:07:59.353Z,6.51
2018-12-24T01:08:59.347Z,6.51
2018-12-24T01:09:59.332Z,6.52
2018-12-24T01:10:59.343Z,6.54
2018-12-24T01:11:59.300Z,6.54
2018-12-24T01:12:59.337Z,6.57
2018-12-24T01:13:59.290Z,6.56
2018-12-24T01:14:59.305Z,6.62
2018-12-24T01:15:59.269Z,6.60
2018-12-24T01:16:59.245Z,6.60
2018-12-24T01:17:59.260Z,6.56
2018-12-24T01:18:59.237Z,6.54
2018-12-24T01:19:59.230Z,6.62
2018-12-24T01:20:59.233Z,6.60
2018-12-24T01:21:59.185Z,6.64
2018-12-24T01:22:59.177Z,6.59
2018-12-24T01:23:59.183Z,6.63
2018-12-24T01:24:59.163Z,6.63
2018-12-24T01:25:59.200Z,6.60
2018-12-24T01:26:59.155Z,6.60
2018-12-24T01:27:59.150Z,6.62
2018-12-24T01:28:59.135Z,6.54
2018-12-24T01:29:59.121Z,6.57
2018-12-24T01:30:59.108Z,6.66
2018-12-24T01:31:59.099Z,6.63
2018-12-24T01:32:59.072Z,6.63
2018-12-24T01:33:59.073Z,6.63
2018-12-24T01:34:59.054Z,6.66
2018-12-24T01:35:59.036Z,6.64
2018-12-24T01:37:00.642Z,6.62
2018-12-24T01:37:59.014Z,6.62
2018-12-24T01:38:58.993Z,6.66
2018-12-24T01:39:59.040Z,6.75
2018-12-24T01:40:58.985Z,6.69
2018-12-24T01:41:58.969Z,6.59
2018-12-24T01:42:58.974Z,6.64
2018-12-24T01:43:58.972Z,6.60
2018-12-24T01:44:58.935Z,6.60
2018-12-24T01:45:58.925Z,6.60
2018-12-24T01:46:58.928Z,6.60
2018-12-24T01:47:58.894Z,6.63
2018-12-24T01:48:58.895Z,6.64
2018-12-24T01:49:58.882Z,6.63
2018-12-24T01:50:58.868Z,6.64
2018-12-24T01:51:58.911Z,6.66
2018-12-24T01:52:58.844Z,6.64
2018-12-24T01:53:58.841Z,6.63
2018-12-24T01:54:58.827Z,6.63
2018-12-24T01:55:58.800Z,6.62
2018-12-24T01:56:58.794Z,6.69
2018-12-24T01:57:58.817Z,6.62
2018-12-24T01:58:58.793Z,6.63
2018-12-24T01:59:58.768Z,6.56
2018-12-24T02:00:58.757Z,6.54
2018-12-24T02:01:58.737Z,6.57
2018-12-24T02:02:58.743Z,6.54
2018-12-24T02:03:58.741Z,6.56
2018-12-24T02:04:58.719Z,6.52
2018-12-24T02:05:58.742Z,6.56
2018-12-24T02:06:58.738Z,6.54
2018-12-24T02:07:58.697Z,6.54
2018-12-24T02:08:58.681Z,6.54
2018-12-24T02:09:58.658Z,6.59
2018-12-24T02:10:58.647Z,6.57
2018-12-24T02:11:58.646Z,6.60
2018-12-24T02:12:58.629Z,6.52
2018-12-24T02:13:58.618Z,6.54
2018-12-24T02:15:06.154Z,6.59
2018-12-24T02:15:58.591Z,6.51
2018-12-24T02:16:58.590Z,6.56
2018-12-24T02:17:58.575Z,6.54
2018-12-24T02:18:58.546Z,6.56
2018-12-24T02:19:58.528Z,6.63
2018-12-24T02:20:58.575Z,6.59
2018-12-24T02:21:58.530Z,6.67
2018-12-24T02:22:58.513Z,6.63
2018-12-24T02:23:58.482Z,6.60
2018-12-24T02:24:58.499Z,6.60
2018-12-24T02:25:58.486Z,6.66
2018-12-24T02:26:58.449Z,6.62
2018-12-24T02:27:58.439Z,6.64
2018-12-24T02:28:58.430Z,6.66
2018-12-24T02:29:58.415Z,6.72
2018-12-24T02:30:58.425Z,6.70
2018-12-24T02:31:58.406Z,6.74
2018-12-24T02:32:58.388Z,6.69
2018-12-24T02:33:58.376Z,6.66
2018-12-24T02:34:58.389Z,6.70
2018-12-24T02:35:58.349Z,6.62
2018-12-24T02:36:58.338Z,6.62
2018-12-24T02:37:58.329Z,6.66
2018-12-24T02:38:58.322Z,6.67
2018-12-24T02:39:58.308Z,6.60
2018-12-24T02:40:58.319Z,6.63
2018-12-24T02:41:58.313Z,6.66
2018-12-24T02:42:58.269Z,6.67
2018-12-24T02:43:58.266Z,6.69
2018-12-24T02:44:58.259Z,6.63
2018-12-24T02:45:58.250Z,6.67
2018-12-24T02:46:58.244Z,6.69
2018-12-24T02:47:58.218Z,6.69
2018-12-24T02:48:58.203Z,6.60
2018-12-24T02:49:58.195Z,6.60
2018-12-24T02:50:58.186Z,6.60
2018-12-24T02:51:58.174Z,6.67
2018-12-24T02:52:58.186Z,6.67
2018-12-24T02:53:58.149Z,6.59
2018-12-24T02:54:58.136Z,6.59
2018-12-24T02:55:58.127Z,6.62
2018-12-24T02:56:58.114Z,6.57
2018-12-24T02:57:58.127Z,6.52
2018-12-24T02:58:58.130Z,6.54
2018-12-24T02:59:58.081Z,6.60
2018-12-24T03:00:58.075Z,6.60
2018-12-24T03:01:58.056Z,6.62
2018-12-24T03:02:58.079Z,6.63
2018-12-24T03:03:58.056Z,6.59
2018-12-24T03:04:58.034Z,6.59
2018-12-24T03:05:58.015Z,6.52
2018-12-24T03:06:58.003Z,6.59
2018-12-24T03:07:57.991Z,6.57
2018-12-24T03:08:57.979Z,6.49
2018-12-24T03:09:57.982Z,6.57
2018-12-24T03:10:57.977Z,6.63
2018-12-24T03:11:57.957Z,6.56
2018-12-24T03:13:02.876Z,6.60
2018-12-24T03:13:58.928Z,6.49
2018-12-24T03:14:57.927Z,6.45
2018-12-24T03:15:57.902Z,6.54
2018-12-24T03:16:57.893Z,6.44
2018-12-24T03:17:57.884Z,6.57
2018-12-24T03:18:57.867Z,6.52
2018-12-24T03:19:57.857Z,6.57
2018-12-24T03:20:57.860Z,6.59
2018-12-24T03:21:57.836Z,6.56
2018-12-24T03:22:57.861Z,6.48
2018-12-24T03:23:57.812Z,6.52
2018-12-24T03:24:57.803Z,6.52
2018-12-24T03:25:57.792Z,6.48
2018-12-24T03:26:57.806Z,6.46
2018-12-24T03:27:57.767Z,6.54
2018-12-24T03:28:57.760Z,6.57
2018-12-24T03:29:57.751Z,6.60
2018-12-24T03:30:57.740Z,6.54
2018-12-24T03:31:57.744Z,6.59
2018-12-24T03:32:57.742Z,6.59
2018-12-24T03:33:57.700Z,6.57
2018-12-24T03:34:57.689Z,6.56
2018-12-24T03:35:57.699Z,6.56
2018-12-24T03:36:57.674Z,6.45
2018-12-24T03:37:57.666Z,6.52
2018-12-24T03:38:57.669Z,6.51
2018-12-24T03:39:57.632Z,6.51
2018-12-24T03:40:57.654Z,6.44
2018-12-24T03:41:57.628Z,6.39
2018-12-24T03:42:57.602Z,6.46
2018-12-24T03:43:57.594Z,6.57
2018-12-24T03:44:57.591Z,6.42
2018-12-24T03:45:57.592Z,6.56
2018-12-24T03:46:57.551Z,6.46
2018-12-24T03:47:57.543Z,6.49
2018-12-24T03:48:57.538Z,6.39
2018-12-24T03:49:57.521Z,6.46
2018-12-24T03:50:57.528Z,6.51
2018-12-24T03:51:57.497Z,6.46
2018-12-24T03:52:57.486Z,6.57
2018-12-24T03:53:57.476Z,6.59
2018-12-24T03:54:57.469Z,6.54
2018-12-24T03:55:57.454Z,6.57
2018-12-24T03:56:57.468Z,6.48
2018-12-24T03:57:57.451Z,6.60
2018-12-24T03:58:57.417Z,6.60
2018-12-24T03:59:57.448Z,6.56
2018-12-24T04:00:57.398Z,6.60
2018-12-24T04:01:57.391Z,6.60
2018-12-24T04:02:57.375Z,6.56
2018-12-24T04:03:57.368Z,6.56
2018-12-24T04:04:57.351Z,6.60
2018-12-24T04:05:57.352Z,6.57
2018-12-24T04:06:57.348Z,6.59
2018-12-24T04:07:57.318Z,6.54
2018-12-24T04:08:57.331Z,6.51
2018-12-24T04:09:57.319Z,6.59
2018-12-24T04:10:57.282Z,6.51
2018-12-24T04:11:57.300Z,6.56
2018-12-24T04:12:57.277Z,6.59
2018-12-24T04:13:57.272Z,6.59
2018-12-24T04:14:57.242Z,6.51
2018-12-24T04:15:57.232Z,6.54
2018-12-24T04:16:57.220Z,6.51
2018-12-24T04:17:57.216Z,6.52
2018-12-24T04:18:57.194Z,6.54
2018-12-24T04:19:57.235Z,6.52
2018-12-24T04:20:57.175Z,6.49
2018-12-24T04:21:57.160Z,6.39
2018-12-24T04:22:57.164Z,6.41
2018-12-24T04:23:57.143Z,6.44
2018-12-24T04:24:57.145Z,6.48
2018-12-24T04:25:57.123Z,6.41
2018-12-24T04:26:57.111Z,6.52
2018-12-24T04:27:57.098Z,6.46
2018-12-24T04:28:57.083Z,6.44
2018-12-24T04:29:57.071Z,6.44
2018-12-24T04:30:57.076Z,6.45
2018-12-24T04:31:57.093Z,6.44
2018-12-24T04:32:57.037Z,6.31
2018-12-24T04:33:57.032Z,6.42
2018-12-24T04:34:57.028Z,6.46
2018-12-24T04:35:57.023Z,6.44
2018-12-24T04:36:56.993Z,6.46
2018-12-24T04:37:56.988Z,6.39
2018-12-24T04:38:56.969Z,6.45
2018-12-24T04:39:56.964Z,6.44
2018-12-24T04:40:56.973Z,6.44
2018-12-24T04:41:56.937Z,6.41
2018-12-24T04:42:56.926Z,6.51
2018-12-24T04:43:59.040Z,6.39
2018-12-24T04:44:56.907Z,6.39
2018-12-24T04:45:56.904Z,6.42
2018-12-24T04:46:56.895Z,6.46
2018-12-24T04:47:56.869Z,6.45
2018-12-24T04:48:56.879Z,6.36
2018-12-24T04:49:56.852Z,6.42
2018-12-24T04:50:56.839Z,6.41
2018-12-24T04:51:56.842Z,6.39
2018-12-24T04:52:56.812Z,6.42
2018-12-24T04:53:56.805Z,6.46
2018-12-24T04:54:56.811Z,6.42
2018-12-24T04:55:56.873Z,6.46
2018-12-24T04:56:56.767Z,6.38
2018-12-24T04:57:56.783Z,6.39
2018-12-24T04:58:56.745Z,6.36
2018-12-24T04:59:56.736Z,6.33
2018-12-24T05:00:56.726Z,6.46
2018-12-24T05:01:56.720Z,6.39
2018-12-24T05:02:56.707Z,6.46
2018-12-24T05:03:56.705Z,6.31
2018-12-24T05:04:56.711Z,6.33
2018-12-24T05:05:56.670Z,6.30
2018-12-24T05:06:56.654Z,6.31
2018-12-24T05:07:56.647Z,6.30
2018-12-24T05:08:56.631Z,6.30
2018-12-24T05:09:56.646Z,6.22
2018-12-24T05:10:56.622Z,6.16
2018-12-24T05:11:56.600Z,6.19
2018-12-24T05:12:56.597Z,6.20
2018-12-24T05:13:56.577Z,6.17
2018-12-24T05:14:56.583Z,6.14
2018-12-24T05:15:56.579Z,6.16
2018-12-24T05:16:56.561Z,6.19
2018-12-24T05:17:56.532Z,6.14
2018-12-24T05:18:56.518Z,6.17
2018-12-24T05:19:56.512Z,6.24
2018-12-24T05:20:56.512Z,6.20
2018-12-24T05:21:56.486Z,6.28
2018-12-24T05:22:56.506Z,6.22
2018-12-24T05:23:56.473Z,6.20
2018-12-24T05:24:56.453Z,6.24
2018-12-24T05:25:56.444Z,6.16
2018-12-24T05:26:56.444Z,6.27
2018-12-24T05:27:56.434Z,6.27
2018-12-24T05:28:56.410Z,6.16
2018-12-24T05:29:56.397Z,6.27
2018-12-24T05:30:56.389Z,6.20
2018-12-24T05:31:56.377Z,6.22
2018-12-24T05:32:56.364Z,6.16
2018-12-24T05:33:56.371Z,6.22
2018-12-24T05:34:56.364Z,6.14
2018-12-24T05:35:56.330Z,6.17
2018-12-24T05:36:56.322Z,6.14
2018-12-24T05:37:56.314Z,6.09
2018-12-24T05:38:56.298Z,6.11
2018-12-24T05:39:56.299Z,6.16
2018-12-24T05:40:56.278Z,6.14
2018-12-24T05:41:56.264Z,6.04
2018-12-24T05:42:56.251Z,6.07
2018-12-24T05:43:56.243Z,6.05
2018-12-24T05:44:56.235Z,6.08
2018-12-24T05:45:56.233Z,6.05
2018-12-24T05:46:56.208Z,6.07
2018-12-24T05:47:56.201Z,5.98
2018-12-24T05:48:56.199Z,5.99
2018-12-24T05:49:56.170Z,6.02
2018-12-24T05:50:56.180Z,5.99
2018-12-24T05:51:56.148Z,6.01
2018-12-24T05:52:56.145Z,5.93
2018-12-24T05:53:56.127Z,5.97
2018-12-24T05:54:56.118Z,5.99
2018-12-24T05:55:56.104Z,5.97
2018-12-24T05:56:56.105Z,5.94
2018-12-24T05:57:56.086Z,5.94
2018-12-24T05:58:56.081Z,5.90
2018-12-24T05:59:56.080Z,5.89
2018-12-24T06:00:56.079Z,5.83
2018-12-24T06:01:56.052Z,5.86
2018-12-24T06:02:56.042Z,5.86
2018-12-24T06:03:56.016Z,5.82
2018-12-24T06:04:56.010Z,5.80
2018-12-24T06:05:55.991Z,5.84
2018-12-24T06:06:55.998Z,5.83
2018-12-24T06:07:56.007Z,5.86
2018-12-24T06:08:55.962Z,5.87
2018-12-24T06:09:55.951Z,5.87
2018-12-24T06:10:55.942Z,5.84
2018-12-24T06:11:56.245Z,5.82
2018-12-24T06:12:55.915Z,5.82
2018-12-24T06:13:58.074Z,5.86
2018-12-24T06:14:55.919Z,5.89
2018-12-24T06:15:55.884Z,5.86
2018-12-24T06:16:55.899Z,5.86
2018-12-24T06:17:57.682Z,5.86
2018-12-24T06:18:55.850Z,5.93
2018-12-24T06:19:55.866Z,5.84
2018-12-24T06:20:55.833Z,5.89
2018-12-24T06:21:55.814Z,5.89
2018-12-24T06:22:55.821Z,5.83
2018-12-24T06:23:55.803Z,5.84
2018-12-24T06:24:55.780Z,5.89
2018-12-24T06:25:55.889Z,5.84
2018-12-24T06:26:55.758Z,5.84
2018-12-24T06:27:55.753Z,5.86
2018-12-24T06:28:55.763Z,5.76
2018-12-24T06:29:55.722Z,5.75
2018-12-24T06:30:55.749Z,5.65
2018-12-24T06:31:55.722Z,5.72
2018-12-24T06:32:55.693Z,5.68
2018-12-24T06:33:55.681Z,5.68
2018-12-24T06:34:55.673Z,5.68
2018-12-24T06:35:55.662Z,5.73
2018-12-24T06:36:55.669Z,5.61
2018-12-24T06:37:55.640Z,5.71
2018-12-24T06:38:55.627Z,5.64
2018-12-24T06:39:55.618Z,5.59
2018-12-24T06:40:55.614Z,5.57
2018-12-24T06:41:55.595Z,5.56
2018-12-24T06:42:55.598Z,5.41
2018-12-24T06:43:55.568Z,5.50
2018-12-24T06:44:55.560Z,5.47
2018-12-24T06:45:55.564Z,5.39
2018-12-24T06:46:55.543Z,5.39
2018-12-24T06:47:55.522Z,5.29
2018-12-24T06:48:55.547Z,5.29
2018-12-24T06:49:55.509Z,5.21
2018-12-24T06:50:55.589Z,5.26
2018-12-24T06:51:55.485Z,5.23
2018-12-24T06:52:55.487Z,5.20
2018-12-24T06:53:55.459Z,5.08
2018-12-24T06:54:55.461Z,5.14
2018-12-24T06:55:55.434Z,5.14
2018-12-24T06:56:55.422Z,5.07
2018-12-24T06:57:55.421Z,5.08
2018-12-24T06:58:55.400Z,4.96
2018-12-24T06:59:55.391Z,5.08
2018-12-24T07:00:55.413Z,4.89
2018-12-24T07:01:55.409Z,5.00
2018-12-24T07:02:55.378Z,4.90
2018-12-24T07:03:55.370Z,4.90
2018-12-24T07:04:55.337Z,4.77
2018-12-24T07:05:55.347Z,4.82
2018-12-24T07:06:55.311Z,4.70
2018-12-24T07:07:55.340Z,4.75
2018-12-24T07:08:55.313Z,4.75
2018-12-24T07:09:55.313Z,4.73
2018-12-24T07:10:55.285Z,4.71
2018-12-24T07:11:55.272Z,4.63
2018-12-24T07:12:55.246Z,4.67
2018-12-24T07:13:55.289Z,4.67
2018-12-24T07:14:55.257Z,4.70
2018-12-24T07:15:55.254Z,4.66
2018-12-24T07:16:55.217Z,4.63
2018-12-24T07:17:55.210Z,4.70
2018-12-24T07:18:55.176Z,4.62
2018-12-24T07:19:55.186Z,4.71
2018-12-24T07:20:55.175Z,4.66
2018-12-24T07:21:55.153Z,4.59
2018-12-24T07:22:55.169Z,4.59
2018-12-24T07:23:55.136Z,4.56
2018-12-24T07:24:55.140Z,4.58
2018-12-24T07:25:55.118Z,4.53
2018-12-24T07:26:55.131Z,4.52
2018-12-24T07:27:55.110Z,4.53
2018-12-24T07:28:59.066Z,4.50
2018-12-24T07:29:55.058Z,4.50
2018-12-24T07:30:55.050Z,4.44
2018-12-24T07:31:55.061Z,4.50
2018-12-24T07:32:55.034Z,4.41
2018-12-24T07:33:55.013Z,4.48
2018-12-24T07:34:55.070Z,4.38
2018-12-24T07:35:54.991Z,4.31
2018-12-24T07:36:55.003Z,4.41
2018-12-24T07:37:55.002Z,4.32
2018-12-24T07:38:54.958Z,4.31
2018-12-24T07:39:54.964Z,4.26
2018-12-24T07:40:54.940Z,4.24
2018-12-24T07:41:54.935Z,4.30
2018-12-24T07:42:54.926Z,4.31
2018-12-24T07:43:54.914Z,4.24
2018-12-24T07:44:54.889Z,4.23
2018-12-24T07:45:54.893Z,4.28
2018-12-24T07:46:54.902Z,4.35
2018-12-24T07:47:54.880Z,4.24
2018-12-24T07:48:54.895Z,4.34
2018-12-24T07:49:54.859Z,4.31
2018-12-24T07:50:54.823Z,4.16
2018-12-24T07:51:54.850Z,4.13
2018-12-24T07:52:54.802Z,4.22
2018-12-24T07:53:54.791Z,4.19
2018-12-24T07:54:54.807Z,4.12
2018-12-24T07:55:54.790Z,4.13
2018-12-24T07:56:54.770Z,4.13
2018-12-24T07:57:54.744Z,4.10
2018-12-24T07:58:54.737Z,4.04
2018-12-24T07:59:54.749Z,4.08
2018-12-24T08:00:54.738Z,3.99
2018-12-24T08:01:54.712Z,3.98
2018-12-24T08:02:54.687Z,3.96
2018-12-24T08:03:54.680Z,3.96
2018-12-24T08:04:54.667Z,3.92
2018-12-24T08:05:54.659Z,3.99
2018-12-24T08:06:54.685Z,3.98
2018-12-24T08:07:54.654Z,3.99
2018-12-24T08:08:54.625Z,4.01
2018-12-24T08:09:54.610Z,3.91
2018-12-24T08:10:54.602Z,3.92
2018-12-24T08:11:54.616Z,3.94
2018-12-24T08:12:54.622Z,4.01
2018-12-24T08:13:54.588Z,3.96
2018-12-24T08:14:54.566Z,4.06
2018-12-24T08:16:03.180Z,3.99
2018-12-24T08:16:54.570Z,3.99
2018-12-24T08:17:54.528Z,4.01
2018-12-24T08:18:54.542Z,3.99
2018-12-24T08:19:54.507Z,4.04
2018-12-24T08:20:54.562Z,4.04
2018-12-24T08:21:54.483Z,3.95
2018-12-24T08:22:54.483Z,4.04
2018-12-24T08:23:54.463Z,4.05
2018-12-24T08:24:54.462Z,4.16
2018-12-24T08:25:54.440Z,4.12
2018-12-24T08:26:54.431Z,4.16
2018-12-24T08:27:54.416Z,4.16
2018-12-24T08:28:54.411Z,4.14
2018-12-24T08:29:54.410Z,4.19
2018-12-24T08:30:54.382Z,4.14
2018-12-24T08:31:54.375Z,4.30
2018-12-24T08:32:54.383Z,4.45
2018-12-24T08:33:54.492Z,4.71
2018-12-24T08:34:54.343Z,5.26
2018-12-24T08:35:54.349Z,5.61
2018-12-24T08:36:54.316Z,5.98
2018-12-24T08:37:54.325Z,6.22
2018-12-24T08:38:54.291Z,6.49
2018-12-24T08:39:54.290Z,6.74
2018-12-24T08:40:54.319Z,7.11
2018-12-24T08:41:54.280Z,7.36
2018-12-24T08:42:54.248Z,7.57
2018-12-24T08:43:54.242Z,7.90
2018-12-24T08:44:54.271Z,8.28
2018-12-24T08:45:54.219Z,8.46
2018-12-24T08:46:54.254Z,8.71
2018-12-24T08:47:54.217Z,8.70
2018-12-24T08:48:54.181Z,8.55
2018-12-24T08:49:54.175Z,8.34
2018-12-24T08:50:54.187Z,8.16
2018-12-24T08:51:54.147Z,8.06
2018-12-24T08:52:54.136Z,7.97
2018-12-24T08:53:54.138Z,7.70
2018-12-24T08:54:54.118Z,7.69
2018-12-24T08:55:54.124Z,7.69
2018-12-24T08:56:54.103Z,7.80
2018-12-24T08:57:54.091Z,7.60
2018-12-24T08:58:54.085Z,7.38
2018-12-24T08:59:54.065Z,7.32
2018-12-24T09:00:54.084Z,7.61
2018-12-24T09:01:54.057Z,7.73
2018-12-24T09:02:54.023Z,7.75
2018-12-24T09:03:54.010Z,7.69
2018-12-24T09:04:54.014Z,7.57
2018-12-24T09:05:53.996Z,7.38
2018-12-24T09:06:54.023Z,7.00
2018-12-24T09:07:53.965Z,6.74
2018-12-24T09:08:53.959Z,6.79
2018-12-24T09:09:53.967Z,6.99
2018-12-24T09:10:53.941Z,7.03
2018-12-24T09:11:53.921Z,6.72
2018-12-24T09:12:53.920Z,6.26
2018-12-24T09:13:53.901Z,5.99
2018-12-24T09:14:53.891Z,5.91
2018-12-24T09:15:53.977Z,5.98
2018-12-24T09:16:53.869Z,6.30
2018-12-24T09:17:53.858Z,6.60
2018-12-24T09:18:53.874Z,6.99
2018-12-24T09:19:53.838Z,7.24
2018-12-24T09:20:53.839Z,7.45
2018-12-24T09:21:53.832Z,7.53
2018-12-24T09:22:53.812Z,7.76
2018-12-24T09:23:53.802Z,7.82
2018-12-24T09:24:53.777Z,7.72
2018-12-24T09:25:53.768Z,7.87
2018-12-24T09:26:53.756Z,7.97
2018-12-24T09:27:53.754Z,8.36
2018-12-24T09:28:53.767Z,8.58
2018-12-24T09:29:53.716Z,8.45
2018-12-24T09:30:53.713Z,8.06
2018-12-24T09:31:53.693Z,7.73
2018-12-24T09:32:53.696Z,7.67
2018-12-24T09:33:53.687Z,7.67
2018-12-24T09:34:53.672Z,7.69
2018-12-24T09:35:53.767Z,7.69
2018-12-24T09:36:53.647Z,7.70
2018-12-24T09:37:53.646Z,7.51
2018-12-24T09:38:53.641Z,7.51
2018-12-24T09:39:53.643Z,7.54
2018-12-24T09:40:53.595Z,7.33
2018-12-24T09:41:53.590Z,7.40
2018-12-24T09:42:53.577Z,7.56
2018-12-24T09:43:53.571Z,7.73
2018-12-24T09:44:58.974Z,7.72
2018-12-24T09:45:54.590Z,7.54
2018-12-24T09:46:53.531Z,7.53
2018-12-24T09:47:53.521Z,7.67
2018-12-24T09:48:53.544Z,7.54
2018-12-24T09:49:53.491Z,7.40
2018-12-24T09:50:53.505Z,7.33
2018-12-24T09:51:53.474Z,7.18
2018-12-24T09:52:53.471Z,6.93
2018-12-24T09:53:53.451Z,6.72
2018-12-24T09:54:53.439Z,6.72
2018-12-24T09:55:53.452Z,6.54
2018-12-24T09:56:53.523Z,6.42
2018-12-24T09:57:53.403Z,6.30
2018-12-24T09:58:53.391Z,6.24
2018-12-24T09:59:53.381Z,6.11
2018-12-24T10:00:53.368Z,6.05
2018-12-24T10:01:53.371Z,5.82
2018-12-24T10:02:53.365Z,5.87
2018-12-24T10:03:53.334Z,5.80
2018-12-24T10:04:53.358Z,5.76
2018-12-24T10:05:53.315Z,5.75
2018-12-24T10:06:53.297Z,5.72
2018-12-24T10:07:53.294Z,5.68
2018-12-24T10:08:53.302Z,5.79
2018-12-24T10:09:53.271Z,5.69
2018-12-24T10:10:53.260Z,5.69
2018-12-24T10:11:53.258Z,5.68
2018-12-24T10:12:53.238Z,5.64
2018-12-24T10:13:53.279Z,5.79
2018-12-24T10:14:53.234Z,5.69
2018-12-24T10:15:53.202Z,5.75
2018-12-24T10:16:53.189Z,5.65
2018-12-24T10:17:53.185Z,5.72
2018-12-24T10:18:53.172Z,5.68
2018-12-24T10:19:53.160Z,5.71
2018-12-24T10:20:53.181Z,5.71
2018-12-24T10:21:53.138Z,5.65
2018-12-24T10:22:53.125Z,5.65
2018-12-24T10:23:53.120Z,5.68
2018-12-24T10:24:53.158Z,5.66
2018-12-24T10:25:53.091Z,5.65
2018-12-24T10:26:53.096Z,5.68
2018-12-24T10:27:53.072Z,5.69
2018-12-24T10:28:53.055Z,5.76
2018-12-24T10:29:53.047Z,5.75
2018-12-24T10:30:53.111Z,5.79
2018-12-24T10:31:53.023Z,5.82
2018-12-24T10:32:53.006Z,5.84
2018-12-24T10:33:53.026Z,5.90
2018-12-24T10:34:52.993Z,5.93
2018-12-24T10:35:52.994Z,6.04
2018-12-24T10:36:52.967Z,6.02
2018-12-24T10:37:52.953Z,6.04
2018-12-24T10:38:52.945Z,6.11
2018-12-24T10:39:52.974Z,6.08
2018-12-24T10:40:52.918Z,6.17
2018-12-24T10:41:52.935Z,6.28
2018-12-24T10:42:52.899Z,6.27
2018-12-24T10:43:52.889Z,6.27
2018-12-24T10:44:52.930Z,6.35
2018-12-24T10:45:52.863Z,6.31
2018-12-24T10:46:52.853Z,6.41
2018-12-24T10:47:52.960Z,6.38
2018-12-24T10:48:52.839Z,6.42
2018-12-24T10:49:52.824Z,6.45
2018-12-24T10:50:52.825Z,6.41
2018-12-24T10:51:52.803Z,6.38
2018-12-24T10:52:52.845Z,6.46
2018-12-24T10:53:52.780Z,6.51
2018-12-24T10:54:52.771Z,6.57
2018-12-24T10:55:52.779Z,6.52
2018-12-24T10:56:52.824Z,6.59
2018-12-24T10:57:52.733Z,6.62
2018-12-24T10:58:52.724Z,6.62
2018-12-24T10:59:52.708Z,6.59
2018-12-24T11:00:52.715Z,6.48
2018-12-24T11:01:52.700Z,6.52
2018-12-24T11:02:52.696Z,6.57
2018-12-24T11:03:52.659Z,6.46
2018-12-24T11:04:52.678Z,6.42
2018-12-24T11:05:52.640Z,6.44
2018-12-24T11:06:52.628Z,6.31
2018-12-24T11:07:52.664Z,6.35
2018-12-24T11:08:52.623Z,6.31
2018-12-24T11:09:52.599Z,6.36
2018-12-24T11:10:52.583Z,6.33
2018-12-24T11:11:52.575Z,6.30
2018-12-24T11:12:52.586Z,6.31
2018-12-24T11:13:52.551Z,6.31
2018-12-24T11:14:52.562Z,6.38
2018-12-24T11:15:52.533Z,6.27
2018-12-24T11:16:52.537Z,6.36
2018-12-24T11:17:52.519Z,6.42
2018-12-24T11:18:52.495Z,6.41
2018-12-24T11:19:53.764Z,6.42
2018-12-24T11:20:52.503Z,6.33
2018-12-24T11:21:52.480Z,6.41
2018-12-24T11:22:52.562Z,6.46
2018-12-24T11:23:52.435Z,6.46
2018-12-24T11:24:52.435Z,6.49
2018-12-24T11:25:52.434Z,6.44
2018-12-24T11:26:52.405Z,6.52
2018-12-24T11:27:52.462Z,6.54
2018-12-24T11:28:52.384Z,6.59
2018-12-24T11:29:52.367Z,6.56
2018-12-24T11:30:52.366Z,6.57
2018-12-24T11:31:52.399Z,6.42
2018-12-24T11:32:52.347Z,6.44
2018-12-24T11:33:52.345Z,6.52
2018-12-24T11:34:52.313Z,6.52
2018-12-24T11:35:52.317Z,6.62
2018-12-24T11:36:52.289Z,6.66
2018-12-24T11:37:52.285Z,6.77
2018-12-24T11:38:52.321Z,6.81
2018-12-24T11:39:52.257Z,6.78
2018-12-24T11:40:52.247Z,6.87
2018-12-24T11:41:52.267Z,6.93
2018-12-24T11:42:52.273Z,6.93
2018-12-24T11:43:52.233Z,6.87
2018-12-24T11:44:52.207Z,6.88
2018-12-24T11:45:52.228Z,6.89
2018-12-24T11:46:52.206Z,6.92
2018-12-24T11:47:52.172Z,6.92
2018-12-24T11:48:52.178Z,6.82
2018-12-24T11:49:52.170Z,6.82
2018-12-24T11:50:52.142Z,6.79
2018-12-24T11:51:52.126Z,6.78
2018-12-24T11:52:52.131Z,6.72
2018-12-24T11:53:52.117Z,6.74
2018-12-24T11:54:52.095Z,6.78
2018-12-24T11:55:52.089Z,6.87
2018-12-24T11:56:52.102Z,6.88
2018-12-24T11:57:52.080Z,6.99
2018-12-24T11:58:52.041Z,7.06
2018-12-24T11:59:52.090Z,7.17
2018-12-24T12:00:52.022Z,7.24
2018-12-24T12:01:52.012Z,7.28
2018-12-24T12:02:51.998Z,7.14
2018-12-24T12:03:52.002Z,6.99
2018-12-24T12:04:51.977Z,7.00
2018-12-24T12:05:53.908Z,7.05
2018-12-24T12:06:51.954Z,7.18
2018-12-24T12:07:51.946Z,7.29
2018-12-24T12:08:51.958Z,7.25
2018-12-24T12:09:52.011Z,7.35
2018-12-24T12:10:51.921Z,7.29
2018-12-24T12:11:51.993Z,7.28
2018-12-24T12:12:51.889Z,7.33
2018-12-24T12:13:51.880Z,7.36
2018-12-24T12:14:51.881Z,7.40
2018-12-24T12:15:51.892Z,7.48
2018-12-24T12:16:51.838Z,7.48
2018-12-24T12:17:51.826Z,7.35
2018-12-24T12:18:51.825Z,7.36
2018-12-24T12:19:51.825Z,7.31
2018-12-24T12:20:52.695Z,7.35
2018-12-24T12:21:51.819Z,7.15
2018-12-24T12:22:51.774Z,7.05
2018-12-24T12:23:51.763Z,7.02
2018-12-24T12:24:51.765Z,6.87
2018-12-24T12:25:51.750Z,6.75
2018-12-24T12:26:51.750Z,6.67
2018-12-24T12:27:51.720Z,6.66
2018-12-24T12:28:51.738Z,6.60
2018-12-24T12:29:51.691Z,6.67
2018-12-24T12:30:51.685Z,6.74
2018-12-24T12:31:51.674Z,6.70
2018-12-24T12:32:51.682Z,6.64
2018-12-24T12:33:51.695Z,6.51
2018-12-24T12:34:51.642Z,6.66
2018-12-24T12:35:51.636Z,6.72
2018-12-24T12:36:51.621Z,6.70
2018-12-24T12:37:51.608Z,6.72
2018-12-24T12:38:51.607Z,6.77
2018-12-24T12:39:51.598Z,6.74
2018-12-24T12:40:51.570Z,6.74
2018-12-24T12:41:51.586Z,6.79
2018-12-24T12:42:51.566Z,6.89
2018-12-24T12:43:51.642Z,6.79
2018-12-24T12:44:51.528Z,6.79
2018-12-24T12:45:51.663Z,6.81
2018-12-24T12:46:51.505Z,6.84
2018-12-24T12:47:51.489Z,6.89
2018-12-24T12:48:51.482Z,6.89
2018-12-24T12:49:51.494Z,6.88
2018-12-24T12:50:51.501Z,6.99
2018-12-24T12:51:51.447Z,6.99
2018-12-24T12:52:51.436Z,6.95
2018-12-24T12:53:51.422Z,6.87
2018-12-24T12:54:51.410Z,6.82
2018-12-24T12:55:51.417Z,6.84
2018-12-24T12:56:51.394Z,6.82
2018-12-24T12:57:51.380Z,6.96
2018-12-24T12:58:51.374Z,6.93
2018-12-24T12:59:51.356Z,6.84
2018-12-24T13:00:51.363Z,6.81
2018-12-24T13:01:51.347Z,6.78
2018-12-24T13:02:51.321Z,6.78
2018-12-24T13:03:51.310Z,6.79
2018-12-24T13:04:51.297Z,6.74
2018-12-24T13:05:51.290Z,6.69
2018-12-24T13:06:51.275Z,6.69
2018-12-24T13:07:51.318Z,6.69
2018-12-24T13:08:51.256Z,6.66
2018-12-24T13:09:51.243Z,6.64
2018-12-24T13:10:51.234Z,6.74
2018-12-24T13:11:51.220Z,6.63
2018-12-24T13:12:51.205Z,6.69
2018-12-24T13:13:51.234Z,6.84
2018-12-24T13:14:51.188Z,6.79
2018-12-24T13:15:59.393Z,6.92
2018-12-24T13:16:52.163Z,6.88
2018-12-24T13:17:51.157Z,6.85